EW2664 Weather Reports


Display with metric or nautical units.
time (UTC)temp
F
wind
direction
speed
MPH
gust
MPH
rain 1hr
in
rain 24hr
in
rain mn
in
humidity
%
barometer
mb
20220520210621 74 67 4.0 10.0 0.12 1.28 1.22 98 1018.3
20220520210151 74 90 3.0 14.0 0.13 1.28 1.22 98 1018.5
20220520205616 74 55 4.0 14.0 0.12 1.27 1.21 98 1018.0
20220520205124 73 44 6.0 12.0 0.13 1.27 1.21 97 1018.4
20220520204629 73 27 5.0 10.0 0.13 1.27 1.21 97 1018.3
20220520204119 74 63 4.0 12.0 0.18 1.27 1.21 97 1018.1
20220520203628 74 45 5.0 12.0 0.17 1.26 1.20 96 1018.1
20220520203116 74 360 4.0 13.0 0.16 1.25 1.19 96 1018.3
20220520202626 74 41 6.0 13.0 0.15 1.23 1.17 96 1018.4
20220520202134 75 44 4.0 15.0 0.16 1.22 1.16 96 1018.3
20220520201624 75 71 7.0 15.0 0.16 1.22 1.16 96 1018.6
20220520201129 75 36 5.0 10.0 0.14 1.20 1.14 97 1018.5
20220520200617 75 121 1.0 11.0 0.10 1.16 1.10 97 1018.5
20220520200147 75 103 5.0 13.0 0.09 1.15 1.09 97 1017.9
20220520195633 75 312 5.0 13.0 0.09 1.15 1.09 95 1018.1
20220520195123 76 31 2.0 12.0 0.08 1.14 1.08 95 1018.4
20220520194633 77 355 4.0 12.0 0.08 1.14 1.08 94 1017.9
20220520194120 77 9 3.0 11.0 0.03 1.09 1.03 92 1018.1
20220520193629 77 90 4.0 13.0 0.03 1.09 1.03 91 1017.7
20220520193116 79 270 3.0 13.0 0.03 1.09 1.03 89 1017.9
20220520192627 80 85 2.0 12.0 0.02 1.08 1.02 87 1017.6
20220520192118 81 53 4.0 15.0 0.00 1.06 1.00 87 1017.7
20220520191627 82 86 7.0 15.0 0.00 1.06 1.00 86 1017.4
20220520191134 83 29 5.0 13.0 0.00 1.06 1.00 86 1017.4
20220520190623 84 68 2.0 10.0 0.00 1.06 1.00 85 1017.5
20220520190153 85 41 6.0 10.0 0.00 1.06 1.00 82 1017.6
20220520185617 86 33 1.0 2.0 0.00 1.06 1.00 83 1017.6
20220520185121 86 55 0.0 2.0 0.00 1.06 1.00 84 1017.5
20220520184629 86 99 0.0 2.0 0.00 1.06 1.00 84 1017.4
20220520184117 86 237 0.0 2.0 0.00 1.06 1.00 85 1017.4
20220520183625 86 96 0.0 2.0 0.00 1.06 1.00 88 1017.5
20220520183134 86 96 0.0 7.0 0.03 1.06 1.00 87 1017.4
20220520182621 85 104 1.0 7.0 0.03 1.06 1.00 87 1017.7
20220520182130 85 109 2.0 5.0 0.03 1.06 1.00 87 1018.1
20220520181619 85 95 2.0 4.0 0.03 1.06 1.00 86 1018.3
20220520181130 84 86 1.0 4.0 0.03 1.06 1.00 87 1017.9
20220520180619 84 48 0.0 2.0 0.03 1.06 1.00 88 1017.5
20220520180150 83 240 0.0 2.0 0.03 1.06 1.00 89 1017.2
20220520175616 82 240 0.0 2.0 0.03 1.06 1.00 91 1017.2
20220520175125 81 98 0.0 1.0 0.03 1.06 1.00 90 1017.4
20220520174635 81 98 0.0 1.0 0.03 1.06 1.00 90 1017.6
20220520174124 81 98 0.0 2.0 0.03 1.06 1.00 85 1018.0
20220520173633 83 98 0.0 3.0 0.03 1.06 1.00 82 1018.0
20220520173122 87 140 1.0 3.0 0.00 1.03 0.97 75 1018.0
20220520172629 90 186 1.0 3.0 0.00 1.03 0.97 72 1017.9
20220520172116 90 67 0.0 2.0 0.00 1.03 0.97 79 1017.7
20220520171622 89 86 1.0 2.0 0.00 1.03 0.97 80 1017.6
20220520171130 89 96 0.0 2.0 0.00 1.03 0.97 80 1017.8
20220520170617 89 96 0.0 3.0 0.00 1.03 0.97 80 1017.7
20220520170141 89 96 2.0 3.0 0.00 1.03 0.97 80 1017.7
20220520165627 89 205 1.0 3.0 0.00 1.03 0.97 82 1017.7
20220520165134 88 213 0.0 3.0 0.00 1.03 0.97 84 1017.9
20220520164622 87 84 1.0 4.0 0.00 1.03 0.97 85 1017.7
20220520164130 87 259 0.0 4.0 0.00 1.03 0.97 84 1017.9
20220520163619 87 265 2.0 4.0 0.00 1.03 0.97 84 1017.7
20220520163127 87 257 0.0 2.0 0.00 1.03 0.97 84 1017.7
20220520162615 87 248 0.0 4.0 0.00 1.03 0.97 83 1017.9
20220520162123 87 248 1.0 4.0 0.00 1.03 0.97 84 1017.9
20220520161632 87 218 1.0 3.0 0.00 1.03 0.97 84 1018.0
20220520161120 87 257 1.0 6.0 0.00 1.03 0.97 84 1018.2
20220520160627 86 257 1.0 6.0 0.00 1.03 0.97 85 1018.3
20220520160154 86 216 1.0 4.0 0.00 1.03 0.97 85 1018.3
20220520155621 86 261 2.0 4.0 0.00 1.03 0.97 85 1018.4
20220520155128 86 231 2.0 4.0 0.00 1.03 0.97 85 1018.3
20220520154617 86 265 1.0 5.0 0.00 1.03 0.97 85 1018.2
20220520154126 86 262 1.0 3.0 0.00 1.03 0.97 86 1018.2
20220520153634 86 239 0.0 3.0 0.00 1.03 0.97 85 1018.2
20220520153122 86 235 1.0 3.0 0.00 1.03 0.97 85 1018.2
20220520152631 86 249 0.0 2.0 0.00 1.03 0.97 84 1018.2
20220520152120 86 243 1.0 3.0 0.00 1.03 0.97 84 1018.4
20220520151625 86 180 0.0 0.0 0.00 1.03 0.97 83 1018.5
20220520151133 86 180 0.0 1.0 0.00 1.03 0.97 82 1018.5
20220520150619 87 180 0.0 1.0 0.00 1.03 0.97 82 1018.6
20220520150149 87 136 0.0 1.0 0.00 1.03 0.97 83 1018.6
20220520145634 87 136 0.0 0.0 0.00 1.03 0.97 82 1018.5
20220520145121 86 136 0.0 1.0 0.00 1.03 0.97 82 1018.5
20220520144630 86 136 0.0 1.0 0.00 1.03 0.97 82 1018.5
20220520144119 87 136 0.0 1.0 0.00 1.03 0.97 82 1018.5
20220520143627 86 136 0.0 1.0 0.00 1.03 0.97 83 1018.6
20220520143115 86 136 0.0 2.0 0.00 1.03 0.97 82 1018.5
20220520142623 86 136 0.0 2.0 0.00 1.03 0.97 82 1018.5
20220520142130 86 232 0.0 2.0 0.00 1.03 0.97 82 1018.3
20220520141619 86 232 0.0 2.0 0.00 1.03 0.97 83 1018.2
20220520141127 86 74 0.0 2.0 0.00 1.03 0.97 84 1018.1
20220520140616 85 73 0.0 3.0 0.00 1.03 0.97 84 1018.0
20220520140145 85 69 2.0 3.0 0.00 1.03 0.97 84 1017.9
20220520135630 85 68 0.0 3.0 0.00 1.03 0.97 85 1017.9
20220520135118 85 150 0.0 2.0 0.00 1.03 0.97 86 1017.7
20220520134624 85 150 0.0 2.0 0.00 1.03 0.97 87 1017.6
20220520134132 85 150 0.0 3.0 0.00 1.03 0.97 87 1017.6
20220520133619 84 158 0.0 3.0 0.00 1.03 0.97 88 1017.6
20220520133123 83 86 1.0 2.0 0.00 1.03 0.97 90 1017.5
20220520132632 83 256 0.0 3.0 0.00 1.03 0.97 91 1017.4
20220520132119 82 257 0.0 3.0 0.00 1.03 0.97 92 1017.4
20220520131626 82 258 0.0 2.0 0.00 1.03 0.97 92 1017.4
20220520131132 81 220 0.0 1.0 0.00 1.03 0.97 92 1017.3
20220520130641 81 220 0.0 1.0 0.00 1.03 0.97 92 1017.1
20220520125634 81 218 0.0 1.0 0.00 1.03 0.97 93 1017.0
20220520125121 80 254 0.0 2.0 0.00 1.03 0.97 93 1016.8
20220520124630 80 227 0.0 2.0 0.00 1.03 0.97 93 1016.7
20220520124117 80 238 0.0 3.0 0.00 1.03 0.97 93 1016.7
20220520123621 80 234 1.0 3.0 0.00 1.03 0.97 94 1016.6
20220520123127 80 254 0.0 2.0 0.00 1.03 0.97 94 1016.7
20220520122633 80 254 1.0 3.0 0.00 1.03 0.97 94 1016.7
20220520122118 80 271 0.0 2.0 0.00 1.03 0.97 95 1016.7
20220520121625 80 278 1.0 3.0 0.00 1.03 0.97 95 1016.6
20220520121130 79 248 1.0 3.0 0.00 1.03 0.97 95 1016.6
20220520120620 79 251 0.0 2.0 0.00 1.03 0.97 95 1016.5
20220520120150 79 227 0.0 4.0 0.00 1.03 0.97 95 1016.4
20220520115615 79 226 1.0 4.0 0.00 1.03 0.97 95 1016.3
20220520115125 79 240 0.0 3.0 0.00 1.03 0.97 96 1016.2
20220520114634 79 240 1.0 3.0 0.00 1.03 0.97 96 1016.2
20220520114123 79 248 1.0 3.0 0.00 1.03 0.97 96 1016.2
20220520113634 79 263 1.0 3.0 0.00 1.03 0.97 96 1016.2
20220520113123 79 227 1.0 4.0 0.00 1.03 0.97 96 1016.2
20220520112630 79 248 2.0 4.0 0.00 1.03 0.97 97 1016.3
20220520112119 79 242 1.0 3.0 0.00 1.03 0.97 97 1016.3
20220520111628 79 250 1.0 3.0 0.00 1.03 0.97 97 1016.3
20220520111117 78 250 0.0 3.0 0.00 1.03 0.97 97 1016.3
20220520110626 78 251 1.0 3.0 0.00 1.03 0.97 97 1016.2
20220520110156 78 268 0.0 3.0 0.00 1.03 0.97 97 1016.2
20220520105622 78 240 1.0 3.0 0.00 1.03 0.97 97 1016.1
20220520105128 78 249 1.0 3.0 0.00 1.03 0.97 97 1016.0
20220520104615 78 249 0.0 3.0 0.00 1.03 0.97 98 1015.9
20220520104124 77 249 0.0 2.0 0.00 1.03 0.97 98 1015.9
20220520103634 77 248 0.0 2.0 0.00 1.03 0.97 97 1015.8
20220520103122 77 247 0.0 2.0 0.00 1.03 0.97 97 1015.9
20220520102630 77 247 1.0 3.0 0.00 1.03 0.97 98 1015.9
20220520102120 77 246 1.0 5.0 0.00 1.03 0.97 98 1015.8
20220520101627 77 288 1.0 5.0 0.00 1.03 0.97 98 1015.7
20220520101116 77 227 2.0 4.0 0.00 1.03 0.97 98 1015.9
20220520100625 76 246 2.0 5.0 0.00 1.03 0.97 98 1015.7
20220520100156 76 252 2.0 5.0 0.00 1.03 0.97 98 1015.6
20220520095621 76 229 2.0 5.0 0.00 1.03 0.97 99 1015.4
20220520095130 76 242 0.0 2.0 0.00 1.03 0.97 99 1015.4
20220520094615 75 242 0.0 3.0 0.00 1.03 0.97 99 1015.4
20220520094124 75 242 1.0 3.0 0.00 1.03 0.97 99 1015.5
20220520093632 75 235 1.0 3.0 0.00 1.03 0.97 99 1015.4
20220520093122 74 252 1.0 4.0 0.00 1.03 0.97 99 1015.4
20220520092632 74 252 1.0 3.0 0.00 1.03 0.97 99 1015.4
20220520092120 73 260 0.0 3.0 0.00 1.03 0.97 99 1015.4
20220520091628 73 260 1.0 3.0 0.00 1.03 0.97 99 1015.3
20220520091116 73 258 1.0 2.0 0.01 1.03 0.97 99 1015.2
20220520090623 73 246 0.0 2.0 0.01 1.03 0.97 99 1015.3
20220520090138 73 271 0.0 2.0 0.01 1.03 0.97 99 1015.4
20220520085622 73 271 0.0 2.0 0.01 1.03 0.97 99 1015.6
20220520085131 74 271 0.0 1.0 0.04 1.03 0.97 100 1015.7
20220520084620 74 271 0.0 2.0 0.15 1.03 0.97 100 1015.8
20220520084127 74 271 0.0 2.0 0.22 1.03 0.97 100 1015.8
20220520083615 74 214 0.0 0.0 0.29 1.03 0.97 100 1015.9
20220520083123 74 214 0.0 1.0 0.36 1.03 0.97 100 1016.1
20220520082631 74 214 0.0 3.0 0.45 1.03 0.97 100 1016.1
20220520082119 74 160 0.0 2.0 0.49 1.03 0.97 100 1016.2
20220520081626 74 173 0.0 1.0 0.51 1.03 0.97 100 1016.2
20220520081133 74 173 0.0 1.0 0.57 1.02 0.96 100 1016.4
20220520080642 74 173 0.0 2.0 0.65 1.02 0.96 99 1016.3
20220520080142 73 115 0.0 2.0 0.72 1.02 0.96 100 1016.2
20220520075627 72 58 0.0 5.0 0.81 1.02 0.96 98 1016.5
20220520075115 73 222 1.0 5.0 0.90 0.99 0.93 98 1016.6
20220520074622 74 165 0.0 4.0 0.80 0.86 0.80 99 1016.7
20220520074131 74 315 2.0 4.0 0.75 0.81 0.75 99 1016.9
20220520073618 74 219 1.0 4.0 0.69 0.74 0.68 99 1016.5
20220520073126 74 225 1.0 4.0 0.63 0.67 0.61 99 1016.6
20220520072615 74 254 1.0 5.0 0.56 0.58 0.52 98 1016.5
20220520072120 74 134 2.0 4.0 0.54 0.54 0.48 98 1016.3
20220520071629 74 238 1.0 4.0 0.52 0.52 0.46 98 1016.3
20220520071115 75 192 1.0 4.0 0.44 0.44 0.38 97 1015.8
20220520070622 75 136 1.0 6.0 0.34 0.34 0.28 96 1015.5
20220520070151 76 106 2.0 6.0 0.29 0.29 0.23 96 1015.6
20220520065617 77 207 2.0 5.0 0.20 0.20 0.14 94 1015.9
20220520065124 78 86 1.0 5.0 0.09 0.09 0.03 93 1016.1
20220520064632 80 104 1.0 5.0 0.06 0.06 0.00 95 1015.5
20220520064120 81 76 0.0 2.0 0.06 0.06 0.00 94 1015.5
20220520063628 81 76 0.0 2.0 0.05 0.05 0.05 93 1015.1
20220520063116 81 76 0.0 0.0 0.04 0.04 0.04 92 1015.3
20220520062625 82 76 0.0 1.0 0.02 0.02 0.02 92 1015.2
20220520062133 82 76 0.0 2.0 0.00 0.00 0.00 91 1015.5
20220520061622 82 76 0.0 2.0 0.00 0.00 0.00 90 1015.4
20220520061130 82 70 0.0 2.0 0.00 0.00 0.00 90 1015.5
20220520060621 82 80 0.0 1.0 0.00 0.00 0.00 91 1015.6
20220520060151 82 80 0.0 1.0 0.00 0.00 0.00 90 1015.5
20220520055617 82 172 0.0 1.0 0.00 0.00 0.00 90 1015.5
20220520055125 82 197 0.0 1.0 0.00 0.00 0.00 91 1015.5
20220520054632 82 197 0.0 1.0 0.00 0.00 0.00 91 1015.7
20220520054121 82 197 0.0 1.0 0.00 0.00 0.00 91 1015.8
20220520053627 82 197 0.0 1.0 0.00 0.00 0.00 90 1015.8
20220520053117 82 69 0.0 1.0 0.00 0.00 0.00 90 1015.8
20220520052626 82 69 0.0 1.0 0.00 0.00 0.00 90 1015.6
20220520052135 82 73 0.0 1.0 0.00 0.00 0.00 90 1015.6
20220520051624 82 76 0.0 1.0 0.00 0.00 0.00 90 1015.6
20220520051133 82 170 0.0 1.0 0.00 0.00 0.00 89 1015.6
20220520050623 82 170 0.0 1.0 0.00 0.00 0.00 89 1015.6
20220520050154 82 170 0.0 1.0 0.00 0.00 0.00 89 1015.6
20220520045620 82 207 0.0 2.0 0.00 0.00 0.00 89 1015.7
20220520045130 82 205 0.0 1.0 0.00 0.00 0.00 89 1015.8
20220520044620 82 205 0.0 1.0 0.00 0.00 0.00 88 1015.9
20220520044131 82 205 0.0 1.0 0.00 0.00 0.00 88 1015.9
20220520043622 82 202 0.0 2.0 0.00 0.00 0.00 88 1016.2
20220520043132 82 202 0.0 5.0 0.00 0.00 0.00 88 1016.3
20220520042620 82 157 0.0 2.0 0.00 0.00 0.00 87 1016.4
20220520042130 82 159 0.0 2.0 0.00 0.00 0.00 87 1016.4
20220520041620 82 207 0.0 2.0 0.00 0.00 0.00 87 1016.4
20220520041129 82 207 0.0 2.0 0.00 0.00 0.00 87 1016.5
20220520040618 82 98 0.0 1.0 0.00 0.00 0.00 87 1016.4
20220520040207 82 98 0.0 1.0 0.00 0.00 0.00 87 1016.3
20220520035624 82 98 0.0 1.0 0.00 0.00 0.00 87 1016.3
20220520035133 82 98 0.0 0.0 0.00 0.00 0.00 87 1016.3
20220520034622 82 98 0.0 0.0 0.00 0.00 0.00 87 1016.2
20220520034127 82 106 0.0 0.0 0.00 0.00 0.00 87 1016.4
20220520033635 82 106 0.0 0.0 0.00 0.00 0.00 87 1016.4
20220520033123 82 107 0.0 0.0 0.00 0.00 0.00 87 1016.4
20220520032629 82 73 0.0 0.0 0.00 0.00 0.00 87 1016.4
20220520032118 82 73 0.0 0.0 0.00 0.00 0.00 87 1016.3
20220520031626 82 73 0.0 0.0 0.00 0.00 0.00 87 1016.2
20220520031135 82 73 0.0 1.0 0.00 0.00 0.00 87 1016.1
20220520030624 82 73 0.0 1.0 0.00 0.00 0.00 86 1016.0
20220520030152 82 73 0.0 1.0 0.00 0.00 0.00 86 1015.8
20220520025616 82 187 0.0 1.0 0.00 0.00 0.00 86 1015.8
20220520025125 82 187 0.0 1.0 0.00 0.00 0.00 86 1016.0
20220520024633 82 187 0.0 1.0 0.00 0.00 0.00 86 1016.0
20220520024122 82 81 0.0 1.0 0.00 0.00 0.00 86 1015.9
20220520023630 82 81 0.0 1.0 0.00 0.00 0.00 86 1015.9
20220520023119 82 81 0.0 1.0 0.00 0.00 0.00 85 1015.8
20220520022626 82 81 0.0 1.0 0.00 0.00 0.00 85 1015.6
20220520022134 82 81 0.0 0.0 0.00 0.00 0.00 85 1015.6
20220520021623 82 81 0.0 0.0 0.00 0.00 0.00 85 1015.7
20220520021131 82 81 0.0 0.0 0.00 0.00 0.00 85 1015.6
20220520020640 82 81 0.0 1.0 0.00 0.00 0.00 85 1015.5
20220520020139 82 81 0.0 1.0 0.00 0.00 0.00 85 1015.4
20220520015621 82 90 0.0 2.0 0.00 0.00 0.00 85 1015.5
20220520015129 82 90 0.0 2.0 0.00 0.00 0.00 85 1015.6
20220520014618 82 140 1.0 3.0 0.00 0.00 0.00 86 1015.6
20220520014127 83 232 0.0 3.0 0.00 0.00 0.00 85 1015.6
20220520013635 83 292 0.0 2.0 0.00 0.00 0.00 85 1015.5
20220520013124 83 62 0.0 2.0 0.00 0.00 0.00 85 1015.4
20220520012632 83 225 0.0 2.0 0.00 0.00 0.00 84 1015.5
20220520012117 83 82 0.0 1.0 0.00 0.00 0.00 84 1015.5
20220520011626 83 146 0.0 2.0 0.00 0.00 0.00 83 1015.5
20220520011133 83 146 0.0 2.0 0.00 0.00 0.00 83 1015.4
20220520010622 83 126 0.0 2.0 0.00 0.00 0.00 83 1015.4
20220520010151 83 126 0.0 2.0 0.00 0.00 0.00 83 1015.4
20220520005617 83 125 0.0 3.0 0.00 0.00 0.00 83 1015.4
20220520005126 83 65 0.0 2.0 0.00 0.00 0.00 83 1015.4
20220520004634 83 78 1.0 2.0 0.00 0.00 0.00 83 1015.2
20220520004122 83 101 0.0 3.0 0.00 0.00 0.00 84 1015.3
20220520003632 83 297 0.0 3.0 0.00 0.00 0.00 83 1015.1
20220520003120 84 202 0.0 1.0 0.00 0.00 0.00 83 1015.1
20220520002628 84 202 0.0 2.0 0.00 0.00 0.00 82 1015.0
20220520002117 84 184 1.0 4.0 0.00 0.00 0.00 82 1015.1
20220520001626 84 154 1.0 4.0 0.00 0.00 0.00 82 1015.0
20220520001117 84 146 1.0 3.0 0.00 0.00 0.00 82 1015.0
20220520000624 84 100 0.0 3.0 0.00 0.00 0.00 82 1014.9
20220520000154 84 123 1.0 2.0 0.00 0.00 0.00 82 1015.0
20220519235621 84 121 0.0 2.0 0.00 0.00 0.00 81 1014.9
20220519235132 84 95 0.0 3.0 0.00 0.00 0.00 81 1014.9
20220519234622 84 117 1.0 4.0 0.00 0.00 0.00 80 1014.8
20220519234131 84 104 1.0 4.0 0.00 0.00 0.00 80 1014.9
20220519233621 85 233 0.0 2.0 0.00 0.00 0.00 80 1014.9
20220519233131 85 117 0.0 3.0 0.00 0.00 0.00 80 1015.0
20220519232621 85 163 1.0 3.0 0.00 0.00 0.00 79 1015.1
20220519232131 85 121 1.0 4.0 0.00 0.00 0.00 80 1015.1
20220519231621 85 84 1.0 4.0 0.00 0.00 0.00 79 1015.2
20220519231132 85 84 1.0 4.0 0.00 0.00 0.00 79 1015.2
20220519230642 85 167 2.0 4.0 0.00 0.00 0.00 79 1015.1
20220519230143 85 140 1.0 5.0 0.00 0.00 0.00 79 1015.0
20220519225632 85 102 2.0 7.0 0.00 0.00 0.00 79 1015.0
20220519225122 85 101 2.0 7.0 0.00 0.00 0.00 79 1014.9
20220519224631 85 236 1.0 3.0 0.00 0.00 0.00 79 1014.9
20220519224120 85 140 1.0 4.0 0.00 0.00 0.00 79 1014.9
20220519223630 86 167 2.0 4.0 0.00 0.00 0.00 79 1014.8
20220519223121 86 61 1.0 3.0 0.00 0.00 0.00 78 1014.8
20220519222631 86 104 1.0 7.0 0.00 0.00 0.00 79 1014.7
20220519222121 86 98 2.0 7.0 0.00 0.00 0.00 79 1014.7
20220519221630 86 154 2.0 6.0 0.00 0.00 0.00 79 1014.6
20220519221120 87 169 2.0 5.0 0.00 0.00 0.00 78 1014.5
20220519220626 87 84 2.0 5.0 0.00 0.00 0.00 77 1014.4
20220519220157 87 94 2.0 5.0 0.00 0.00 0.00 76 1014.4
20220519215624 88 178 2.0 5.0 0.00 0.00 0.00 75 1014.4
20220519215134 87 92 1.0 6.0 0.00 0.00 0.00 76 1014.4
20220519214625 87 71 2.0 8.0 0.00 0.00 0.00 76 1014.4
20220519214116 88 59 2.0 8.0 0.00 0.00 0.00 76 1014.4
20220519213625 88 164 1.0 6.0 0.00 0.00 0.00 76 1014.3
20220519213134 88 65 2.0 5.0 0.00 0.00 0.00 74 1014.2
20220519212624 89 113 2.0 5.0 0.00 0.00 0.00 74 1014.1
20220519212115 89 80 1.0 4.0 0.00 0.00 0.00 74 1014.2
20220519211626 89 223 1.0 4.0 0.00 0.00 0.00 73 1014.0